sensor_id;sensor_type;location;lat;lon;timestamp;P1;durP1;ratioP1;P2;durP2;ratioP2
13743;SDS011;6943;52.368;9.966;2022-07-23T00:00:29;6.37;;;5.07;;
13743;SDS011;6943;52.368;9.966;2022-07-23T00:02:54;8.27;;;5.47;;
13743;SDS011;6943;52.368;9.966;2022-07-23T00:05:20;7.13;;;5.80;;
13743;SDS011;6943;52.368;9.966;2022-07-23T00:07:45;8.00;;;5.63;;
13743;SDS011;6943;52.368;9.966;2022-07-23T00:10:11;8.90;;;5.93;;
13743;SDS011;6943;52.368;9.966;2022-07-23T00:12:37;6.00;;;5.17;;
13743;SDS011;6943;52.368;9.966;2022-07-23T00:15:04;7.53;;;5.30;;
13743;SDS011;6943;52.368;9.966;2022-07-23T00:17:30;5.20;;;4.80;;
13743;SDS011;6943;52.368;9.966;2022-07-23T00:19:56;5.90;;;5.30;;
13743;SDS011;6943;52.368;9.966;2022-07-23T00:22:22;7.77;;;5.97;;
13743;SDS011;6943;52.368;9.966;2022-07-23T00:24:47;8.83;;;6.00;;
13743;SDS011;6943;52.368;9.966;2022-07-23T00:27:13;8.60;;;6.03;;
13743;SDS011;6943;52.368;9.966;2022-07-23T00:29:38;7.47;;;6.10;;
13743;SDS011;6943;52.368;9.966;2022-07-23T00:32:04;7.13;;;5.30;;
13743;SDS011;6943;52.368;9.966;2022-07-23T00:34:30;6.70;;;5.67;;
13743;SDS011;6943;52.368;9.966;2022-07-23T00:36:56;7.20;;;6.37;;
13743;SDS011;6943;52.368;9.966;2022-07-23T00:39:21;9.40;;;6.57;;
13743;SDS011;6943;52.368;9.966;2022-07-23T00:41:47;7.03;;;6.23;;
13743;SDS011;6943;52.368;9.966;2022-07-23T00:44:14;8.93;;;6.30;;
13743;SDS011;6943;52.368;9.966;2022-07-23T00:46:51;6.83;;;6.13;;
13743;SDS011;6943;52.368;9.966;2022-07-23T00:49:28;9.13;;;6.47;;
13743;SDS011;6943;52.368;9.966;2022-07-23T00:51:55;7.20;;;6.20;;
13743;SDS011;6943;52.368;9.966;2022-07-23T00:54:22;7.90;;;6.40;;
13743;SDS011;6943;52.368;9.966;2022-07-23T00:56:49;7.23;;;6.43;;
13743;SDS011;6943;52.368;9.966;2022-07-23T00:59:15;7.03;;;6.43;;
13743;SDS011;6943;52.368;9.966;2022-07-23T01:01:40;8.43;;;6.47;;
13743;SDS011;6943;52.368;9.966;2022-07-23T01:04:06;8.57;;;6.53;;
13743;SDS011;6943;52.368;9.966;2022-07-23T01:06:35;8.00;;;6.40;;
13743;SDS011;6943;52.368;9.966;2022-07-23T01:09:03;8.20;;;6.07;;
13743;SDS011;6943;52.368;9.966;2022-07-23T01:11:31;8.17;;;6.43;;
13743;SDS011;6943;52.368;9.966;2022-07-23T01:14:10;10.43;;;7.07;;
13743;SDS011;6943;52.368;9.966;2022-07-23T01:16:37;13.10;;;10.63;;
13743;SDS011;6943;52.368;9.966;2022-07-23T01:19:03;9.53;;;6.47;;
13743;SDS011;6943;52.368;9.966;2022-07-23T01:21:31;8.77;;;7.50;;
13743;SDS011;6943;52.368;9.966;2022-07-23T01:24:00;7.23;;;6.50;;
13743;SDS011;6943;52.368;9.966;2022-07-23T01:26:25;7.73;;;6.77;;
13743;SDS011;6943;52.368;9.966;2022-07-23T01:28:51;8.90;;;6.37;;
13743;SDS011;6943;52.368;9.966;2022-07-23T01:31:16;10.97;;;6.90;;
13743;SDS011;6943;52.368;9.966;2022-07-23T01:33:42;8.80;;;7.00;;
13743;SDS011;6943;52.368;9.966;2022-07-23T01:36:08;6.77;;;6.00;;
13743;SDS011;6943;52.368;9.966;2022-07-23T01:38:34;10.20;;;6.67;;
13743;SDS011;6943;52.368;9.966;2022-07-23T01:40:59;8.13;;;6.40;;
13743;SDS011;6943;52.368;9.966;2022-07-23T01:43:25;6.73;;;6.03;;
13743;SDS011;6943;52.368;9.966;2022-07-23T01:45:50;7.13;;;6.43;;
13743;SDS011;6943;52.368;9.966;2022-07-23T01:48:16;6.73;;;6.03;;
13743;SDS011;6943;52.368;9.966;2022-07-23T01:50:41;8.43;;;6.00;;
13743;SDS011;6943;52.368;9.966;2022-07-23T01:53:07;7.67;;;6.00;;
13743;SDS011;6943;52.368;9.966;2022-07-23T01:55:32;7.67;;;5.90;;
13743;SDS011;6943;52.368;9.966;2022-07-23T01:57:58;8.67;;;6.70;;
13743;SDS011;6943;52.368;9.966;2022-07-23T02:00:24;8.30;;;6.40;;
13743;SDS011;6943;52.368;9.966;2022-07-23T02:02:49;10.33;;;6.40;;
13743;SDS011;6943;52.368;9.966;2022-07-23T02:05:14;8.80;;;6.83;;
13743;SDS011;6943;52.368;9.966;2022-07-23T02:07:40;10.57;;;7.90;;
13743;SDS011;6943;52.368;9.966;2022-07-23T02:10:07;9.33;;;7.23;;
13743;SDS011;6943;52.368;9.966;2022-07-23T02:12:33;8.50;;;7.60;;
13743;SDS011;6943;52.368;9.966;2022-07-23T02:14:58;8.10;;;7.23;;
13743;SDS011;6943;52.368;9.966;2022-07-23T02:17:24;9.80;;;7.80;;
13743;SDS011;6943;52.368;9.966;2022-07-23T02:19:49;10.70;;;8.37;;
13743;SDS011;6943;52.368;9.966;2022-07-23T02:22:15;9.23;;;8.33;;
13743;SDS011;6943;52.368;9.966;2022-07-23T02:24:40;13.90;;;8.37;;
13743;SDS011;6943;52.368;9.966;2022-07-23T02:27:06;11.57;;;8.00;;
13743;SDS011;6943;52.368;9.966;2022-07-23T02:29:31;10.97;;;8.17;;
13743;SDS011;6943;52.368;9.966;2022-07-23T02:31:56;10.40;;;7.83;;
13743;SDS011;6943;52.368;9.966;2022-07-23T02:34:22;11.67;;;8.60;;
13743;SDS011;6943;52.368;9.966;2022-07-23T02:36:47;10.23;;;8.17;;
13743;SDS011;6943;52.368;9.966;2022-07-23T02:39:13;10.53;;;7.50;;
13743;SDS011;6943;52.368;9.966;2022-07-23T02:41:39;10.33;;;8.30;;
13743;SDS011;6943;52.368;9.966;2022-07-23T02:44:04;9.23;;;8.33;;
13743;SDS011;6943;52.368;9.966;2022-07-23T02:46:30;11.77;;;7.90;;
13743;SDS011;6943;52.368;9.966;2022-07-23T02:48:55;10.70;;;8.30;;
13743;SDS011;6943;52.368;9.966;2022-07-23T02:51:21;11.90;;;8.20;;
13743;SDS011;6943;52.368;9.966;2022-07-23T02:53:46;9.13;;;8.17;;
13743;SDS011;6943;52.368;9.966;2022-07-23T02:56:12;12.33;;;8.50;;
13743;SDS011;6943;52.368;9.966;2022-07-23T02:58:37;9.93;;;8.37;;
13743;SDS011;6943;52.368;9.966;2022-07-23T03:01:03;11.43;;;8.13;;
13743;SDS011;6943;52.368;9.966;2022-07-23T03:03:30;11.70;;;7.80;;
13743;SDS011;6943;52.368;9.966;2022-07-23T03:05:56;9.97;;;7.77;;
13743;SDS011;6943;52.368;9.966;2022-07-23T03:08:21;9.80;;;8.30;;
13743;SDS011;6943;52.368;9.966;2022-07-23T03:10:47;10.13;;;8.30;;
13743;SDS011;6943;52.368;9.966;2022-07-23T03:13:13;12.87;;;8.37;;
13743;SDS011;6943;52.368;9.966;2022-07-23T03:15:38;10.90;;;7.97;;
13743;SDS011;6943;52.368;9.966;2022-07-23T03:18:03;9.67;;;7.63;;
13743;SDS011;6943;52.368;9.966;2022-07-23T03:20:29;9.83;;;7.83;;
13743;SDS011;6943;52.368;9.966;2022-07-23T03:22:55;9.17;;;8.20;;
13743;SDS011;6943;52.368;9.966;2022-07-23T03:25:20;9.60;;;8.13;;
13743;SDS011;6943;52.368;9.966;2022-07-23T03:27:46;11.93;;;8.50;;
13743;SDS011;6943;52.368;9.966;2022-07-23T03:30:11;10.47;;;8.63;;
13743;SDS011;6943;52.368;9.966;2022-07-23T03:32:37;12.67;;;8.87;;
13743;SDS011;6943;52.368;9.966;2022-07-23T03:35:03;11.87;;;8.83;;
13743;SDS011;6943;52.368;9.966;2022-07-23T03:37:29;10.20;;;9.20;;
13743;SDS011;6943;52.368;9.966;2022-07-23T03:39:54;12.90;;;9.40;;
13743;SDS011;6943;52.368;9.966;2022-07-23T03:42:20;13.40;;;9.43;;
13743;SDS011;6943;52.368;9.966;2022-07-23T03:44:45;11.53;;;8.23;;
13743;SDS011;6943;52.368;9.966;2022-07-23T03:47:11;10.47;;;8.80;;
13743;SDS011;6943;52.368;9.966;2022-07-23T03:49:36;11.43;;;9.33;;
13743;SDS011;6943;52.368;9.966;2022-07-23T03:52:02;12.37;;;9.03;;
13743;SDS011;6943;52.368;9.966;2022-07-23T03:54:27;11.03;;;9.83;;
13743;SDS011;6943;52.368;9.966;2022-07-23T03:56:53;10.27;;;9.10;;
13743;SDS011;6943;52.368;9.966;2022-07-23T03:59:18;11.30;;;10.13;;
13743;SDS011;6943;52.368;9.966;2022-07-23T04:01:44;13.67;;;10.43;;
13743;SDS011;6943;52.368;9.966;2022-07-23T04:04:09;12.13;;;9.93;;
13743;SDS011;6943;52.368;9.966;2022-07-23T04:06:35;12.77;;;9.63;;
13743;SDS011;6943;52.368;9.966;2022-07-23T04:09:01;11.03;;;9.93;;
13743;SDS011;6943;52.368;9.966;2022-07-23T04:11:27;10.47;;;9.27;;
13743;SDS011;6943;52.368;9.966;2022-07-23T04:13:53;11.77;;;9.53;;
13743;SDS011;6943;52.368;9.966;2022-07-23T04:16:18;10.27;;;9.17;;
13743;SDS011;6943;52.368;9.966;2022-07-23T04:18:44;12.37;;;9.50;;
13743;SDS011;6943;52.368;9.966;2022-07-23T04:21:10;10.50;;;9.40;;
13743;SDS011;6943;52.368;9.966;2022-07-23T04:23:35;12.93;;;9.50;;
13743;SDS011;6943;52.368;9.966;2022-07-23T04:26:01;10.90;;;9.70;;
13743;SDS011;6943;52.368;9.966;2022-07-23T04:28:26;11.53;;;9.63;;
13743;SDS011;6943;52.368;9.966;2022-07-23T04:30:52;10.17;;;9.17;;
13743;SDS011;6943;52.368;9.966;2022-07-23T04:33:17;9.83;;;8.83;;
13743;SDS011;6943;52.368;9.966;2022-07-23T04:35:43;10.97;;;8.97;;
13743;SDS011;6943;52.368;9.966;2022-07-23T04:38:08;9.73;;;8.73;;
13743;SDS011;6943;52.368;9.966;2022-07-23T04:40:34;9.13;;;8.23;;
13743;SDS011;6943;52.368;9.966;2022-07-23T04:42:59;10.10;;;9.13;;
13743;SDS011;6943;52.368;9.966;2022-07-23T04:45:25;10.67;;;8.70;;
13743;SDS011;6943;52.368;9.966;2022-07-23T04:47:50;13.03;;;8.93;;
13743;SDS011;6943;52.368;9.966;2022-07-23T04:50:16;9.33;;;8.47;;
13743;SDS011;6943;52.368;9.966;2022-07-23T04:52:46;9.30;;;8.27;;
13743;SDS011;6943;52.368;9.966;2022-07-23T04:55:14;10.27;;;8.37;;
13743;SDS011;6943;52.368;9.966;2022-07-23T04:57:40;10.00;;;8.70;;
13743;SDS011;6943;52.368;9.966;2022-07-23T05:00:06;10.90;;;8.80;;
13743;SDS011;6943;52.368;9.966;2022-07-23T05:02:32;9.87;;;8.43;;
13743;SDS011;6943;52.368;9.966;2022-07-23T05:04:58;10.47;;;8.50;;
13743;SDS011;6943;52.368;9.966;2022-07-23T05:07:23;10.40;;;8.83;;
13743;SDS011;6943;52.368;9.966;2022-07-23T05:09:49;10.47;;;8.77;;
13743;SDS011;6943;52.368;9.966;2022-07-23T05:12:14;11.40;;;9.30;;
13743;SDS011;6943;52.368;9.966;2022-07-23T05:14:40;11.53;;;9.57;;
13743;SDS011;6943;52.368;9.966;2022-07-23T05:17:05;10.07;;;9.07;;
13743;SDS011;6943;52.368;9.966;2022-07-23T05:19:32;9.27;;;8.37;;
13743;SDS011;6943;52.368;9.966;2022-07-23T05:21:58;11.03;;;9.17;;
13743;SDS011;6943;52.368;9.966;2022-07-23T05:24:24;10.60;;;9.50;;
13743;SDS011;6943;52.368;9.966;2022-07-23T05:26:49;9.97;;;9.00;;
13743;SDS011;6943;52.368;9.966;2022-07-23T05:29:15;10.30;;;9.30;;
13743;SDS011;6943;52.368;9.966;2022-07-23T05:31:40;11.10;;;8.40;;
13743;SDS011;6943;52.368;9.966;2022-07-23T05:34:06;9.67;;;8.63;;
13743;SDS011;6943;52.368;9.966;2022-07-23T05:36:32;10.07;;;8.03;;
13743;SDS011;6943;52.368;9.966;2022-07-23T05:38:57;8.83;;;7.50;;
13743;SDS011;6943;52.368;9.966;2022-07-23T05:41:23;8.43;;;6.90;;
13743;SDS011;6943;52.368;9.966;2022-07-23T05:43:49;8.00;;;7.05;;
13743;SDS011;6943;52.368;9.966;2022-07-23T05:46:15;11.07;;;7.30;;
13743;SDS011;6943;52.368;9.966;2022-07-23T05:48:40;8.52;;;6.47;;
13743;SDS011;6943;52.368;9.966;2022-07-23T05:51:07;6.95;;;6.13;;
13743;SDS011;6943;52.368;9.966;2022-07-23T05:53:33;8.40;;;6.22;;
13743;SDS011;6943;52.368;9.966;2022-07-23T05:55:59;7.05;;;6.22;;
13743;SDS011;6943;52.368;9.966;2022-07-23T05:58:25;7.50;;;6.30;;
13743;SDS011;6943;52.368;9.966;2022-07-23T06:00:50;7.05;;;5.47;;
13743;SDS011;6943;52.368;9.966;2022-07-23T06:03:16;8.63;;;5.80;;
13743;SDS011;6943;52.368;9.966;2022-07-23T06:05:41;7.00;;;6.30;;
13743;SDS011;6943;52.368;9.966;2022-07-23T06:08:07;7.97;;;5.25;;
13743;SDS011;6943;52.368;9.966;2022-07-23T06:10:32;7.68;;;5.60;;
13743;SDS011;6943;52.368;9.966;2022-07-23T06:12:58;5.07;;;4.55;;
13743;SDS011;6943;52.368;9.966;2022-07-23T06:15:23;5.47;;;4.90;;
13743;SDS011;6943;52.368;9.966;2022-07-23T06:17:49;5.60;;;5.10;;
13743;SDS011;6943;52.368;9.966;2022-07-23T06:20:14;5.75;;;5.18;;
13743;SDS011;6943;52.368;9.966;2022-07-23T06:22:40;6.35;;;5.25;;
13743;SDS011;6943;52.368;9.966;2022-07-23T06:25:06;6.70;;;5.18;;
13743;SDS011;6943;52.368;9.966;2022-07-23T06:27:32;6.22;;;4.70;;
13743;SDS011;6943;52.368;9.966;2022-07-23T06:29:57;5.50;;;4.70;;
13743;SDS011;6943;52.368;9.966;2022-07-23T06:32:23;5.28;;;4.28;;
13743;SDS011;6943;52.368;9.966;2022-07-23T06:34:48;8.60;;;4.80;;
13743;SDS011;6943;52.368;9.966;2022-07-23T06:37:14;4.53;;;4.13;;
13743;SDS011;6943;52.368;9.966;2022-07-23T06:39:39;5.55;;;4.45;;
13743;SDS011;6943;52.368;9.966;2022-07-23T06:42:05;4.50;;;4.10;;
13743;SDS011;6943;52.368;9.966;2022-07-23T06:44:30;5.72;;;4.05;;
13743;SDS011;6943;52.368;9.966;2022-07-23T06:46:56;6.15;;;4.25;;
13743;SDS011;6943;52.368;9.966;2022-07-23T06:49:22;5.32;;;3.90;;
13743;SDS011;6943;52.368;9.966;2022-07-23T06:51:48;6.18;;;4.35;;
13743;SDS011;6943;52.368;9.966;2022-07-23T06:54:13;4.30;;;3.90;;
13743;SDS011;6943;52.368;9.966;2022-07-23T06:56:39;3.75;;;3.00;;
13743;SDS011;6943;52.368;9.966;2022-07-23T06:59:05;4.20;;;3.40;;
13743;SDS011;6943;52.368;9.966;2022-07-23T07:01:30;3.55;;;3.25;;
13743;SDS011;6943;52.368;9.966;2022-07-23T07:03:56;4.68;;;3.90;;
13743;SDS011;6943;52.368;9.966;2022-07-23T07:06:21;5.47;;;3.65;;
13743;SDS011;6943;52.368;9.966;2022-07-23T07:08:47;4.85;;;4.35;;
13743;SDS011;6943;52.368;9.966;2022-07-23T07:11:12;5.43;;;4.32;;
13743;SDS011;6943;52.368;9.966;2022-07-23T07:13:37;4.65;;;3.75;;
13743;SDS011;6943;52.368;9.966;2022-07-23T07:16:03;5.57;;;4.25;;
13743;SDS011;6943;52.368;9.966;2022-07-23T07:18:29;4.20;;;3.65;;
13743;SDS011;6943;52.368;9.966;2022-07-23T07:20:55;4.18;;;3.78;;
13743;SDS011;6943;52.368;9.966;2022-07-23T07:23:22;6.18;;;3.88;;
13743;SDS011;6943;52.368;9.966;2022-07-23T07:25:48;4.32;;;3.33;;
13743;SDS011;6943;52.368;9.966;2022-07-23T07:28:13;6.00;;;3.33;;
13743;SDS011;6943;52.368;9.966;2022-07-23T07:30:39;4.80;;;3.30;;
13743;SDS011;6943;52.368;9.966;2022-07-23T07:33:04;4.63;;;3.10;;
13743;SDS011;6943;52.368;9.966;2022-07-23T07:35:30;4.68;;;2.72;;
13743;SDS011;6943;52.368;9.966;2022-07-23T07:37:57;3.92;;;2.78;;
13743;SDS011;6943;52.368;9.966;2022-07-23T07:40:23;4.40;;;2.85;;
13743;SDS011;6943;52.368;9.966;2022-07-23T07:42:49;4.40;;;3.30;;
13743;SDS011;6943;52.368;9.966;2022-07-23T07:45:16;3.22;;;2.78;;
13743;SDS011;6943;52.368;9.966;2022-07-23T07:47:42;5.78;;;3.28;;
13743;SDS011;6943;52.368;9.966;2022-07-23T07:50:07;3.90;;;2.80;;
13743;SDS011;6943;52.368;9.966;2022-07-23T07:52:34;3.90;;;3.00;;
13743;SDS011;6943;52.368;9.966;2022-07-23T07:55:03;6.47;;;2.78;;
13743;SDS011;6943;52.368;9.966;2022-07-23T07:57:30;3.95;;;2.50;;
13743;SDS011;6943;52.368;9.966;2022-07-23T07:59:55;3.60;;;2.20;;
13743;SDS011;6943;52.368;9.966;2022-07-23T08:02:21;5.40;;;2.17;;
13743;SDS011;6943;52.368;9.966;2022-07-23T08:04:46;2.60;;;2.30;;
13743;SDS011;6943;52.368;9.966;2022-07-23T08:07:13;3.00;;;1.95;;
13743;SDS011;6943;52.368;9.966;2022-07-23T08:09:39;3.25;;;2.08;;
13743;SDS011;6943;52.368;9.966;2022-07-23T08:12:05;2.58;;;2.00;;
13743;SDS011;6943;52.368;9.966;2022-07-23T08:14:31;3.28;;;2.30;;
13743;SDS011;6943;52.368;9.966;2022-07-23T08:16:56;5.65;;;2.70;;
13743;SDS011;6943;52.368;9.966;2022-07-23T08:19:21;3.42;;;2.40;;
13743;SDS011;6943;52.368;9.966;2022-07-23T08:21:47;3.25;;;2.05;;
13743;SDS011;6943;52.368;9.966;2022-07-23T08:24:12;2.33;;;1.90;;
13743;SDS011;6943;52.368;9.966;2022-07-23T08:26:38;4.05;;;1.83;;
13743;SDS011;6943;52.368;9.966;2022-07-23T08:29:03;2.78;;;1.77;;
13743;SDS011;6943;52.368;9.966;2022-07-23T08:31:29;3.17;;;2.00;;
13743;SDS011;6943;52.368;9.966;2022-07-23T08:33:54;3.97;;;2.10;;
13743;SDS011;6943;52.368;9.966;2022-07-23T08:36:21;3.80;;;2.15;;
13743;SDS011;6943;52.368;9.966;2022-07-23T08:38:46;2.65;;;1.90;;
13743;SDS011;6943;52.368;9.966;2022-07-23T08:41:12;2.45;;;2.00;;
13743;SDS011;6943;52.368;9.966;2022-07-23T08:43:39;3.90;;;2.20;;
13743;SDS011;6943;52.368;9.966;2022-07-23T08:46:05;3.42;;;2.42;;
13743;SDS011;6943;52.368;9.966;2022-07-23T08:48:32;4.07;;;2.35;;
13743;SDS011;6943;52.368;9.966;2022-07-23T08:51:00;4.43;;;2.15;;
13743;SDS011;6943;52.368;9.966;2022-07-23T08:53:27;4.90;;;2.70;;
13743;SDS011;6943;52.368;9.966;2022-07-23T08:55:55;2.67;;;2.10;;
13743;SDS011;6943;52.368;9.966;2022-07-23T08:58:22;2.58;;;2.38;;
13743;SDS011;6943;52.368;9.966;2022-07-23T09:00:49;3.13;;;2.22;;
13743;SDS011;6943;52.368;9.966;2022-07-23T09:03:22;2.85;;;1.70;;
13743;SDS011;6943;52.368;9.966;2022-07-23T09:05:49;4.15;;;1.80;;
13743;SDS011;6943;52.368;9.966;2022-07-23T09:08:17;4.25;;;1.98;;
13743;SDS011;6943;52.368;9.966;2022-07-23T09:13:22;4.00;;;2.10;;
13743;SDS011;6943;52.368;9.966;2022-07-23T09:15:55;3.47;;;1.80;;
13743;SDS011;6943;52.368;9.966;2022-07-23T09:18:28;2.08;;;1.73;;
13743;SDS011;6943;52.368;9.966;2022-07-23T09:21:05;4.30;;;2.10;;
13743;SDS011;6943;52.368;9.966;2022-07-23T09:24:13;3.97;;;1.95;;
13743;SDS011;6943;52.368;9.966;2022-07-23T09:26:24;3.72;;;1.77;;
13743;SDS011;6943;52.368;9.966;2022-07-23T09:31:24;5.25;;;2.63;;
13743;SDS011;6943;52.368;9.966;2022-07-23T09:34:06;2.78;;;1.85;;
13743;SDS011;6943;52.368;9.966;2022-07-23T09:36:33;2.70;;;1.98;;
13743;SDS011;6943;52.368;9.966;2022-07-23T09:38:59;2.92;;;2.15;;
13743;SDS011;6943;52.368;9.966;2022-07-23T09:41:24;2.88;;;2.10;;
13743;SDS011;6943;52.368;9.966;2022-07-23T09:43:58;3.58;;;1.92;;
13743;SDS011;6943;52.368;9.966;2022-07-23T09:46:32;1.95;;;1.85;;
13743;SDS011;6943;52.368;9.966;2022-07-23T09:48:57;2.67;;;1.70;;
13743;SDS011;6943;52.368;9.966;2022-07-23T09:51:23;3.53;;;1.70;;
13743;SDS011;6943;52.368;9.966;2022-07-23T09:53:52;4.18;;;1.63;;
13743;SDS011;6943;52.368;9.966;2022-07-23T09:56:18;4.28;;;1.50;;
13743;SDS011;6943;52.368;9.966;2022-07-23T09:58:45;3.33;;;1.70;;
13743;SDS011;6943;52.368;9.966;2022-07-23T10:01:16;4.38;;;1.80;;
13743;SDS011;6943;52.368;9.966;2022-07-23T10:03:42;2.40;;;1.55;;
13743;SDS011;6943;52.368;9.966;2022-07-23T10:06:12;2.28;;;1.88;;
13743;SDS011;6943;52.368;9.966;2022-07-23T10:08:40;2.40;;;1.65;;
13743;SDS011;6943;52.368;9.966;2022-07-23T10:11:07;2.03;;;1.83;;
13743;SDS011;6943;52.368;9.966;2022-07-23T10:13:36;2.33;;;1.83;;
13743;SDS011;6943;52.368;9.966;2022-07-23T10:16:20;4.28;;;1.95;;
13743;SDS011;6943;52.368;9.966;2022-07-23T10:18:47;2.75;;;2.00;;
13743;SDS011;6943;52.368;9.966;2022-07-23T10:21:16;2.75;;;1.70;;
13743;SDS011;6943;52.368;9.966;2022-07-23T10:23:52;2.35;;;1.65;;
13743;SDS011;6943;52.368;9.966;2022-07-23T10:29:34;2.85;;;2.05;;
13743;SDS011;6943;52.368;9.966;2022-07-23T10:32:35;2.05;;;1.80;;
13743;SDS011;6943;52.368;9.966;2022-07-23T10:35:10;4.28;;;2.63;;
13743;SDS011;6943;52.368;9.966;2022-07-23T10:37:47;2.40;;;1.63;;
13743;SDS011;6943;52.368;9.966;2022-07-23T10:40:16;5.43;;;1.60;;
13743;SDS011;6943;52.368;9.966;2022-07-23T10:42:44;3.80;;;1.77;;
13743;SDS011;6943;52.368;9.966;2022-07-23T10:45:24;3.08;;;2.08;;
13743;SDS011;6943;52.368;9.966;2022-07-23T10:47:51;5.10;;;2.10;;
13743;SDS011;6943;52.368;9.966;2022-07-23T10:57:57;3.35;;;1.92;;
13743;SDS011;6943;52.368;9.966;2022-07-23T11:00:26;2.28;;;1.85;;
13743;SDS011;6943;52.368;9.966;2022-07-23T11:02:54;3.45;;;1.70;;
13743;SDS011;6943;52.368;9.966;2022-07-23T11:05:23;3.97;;;1.80;;
13743;SDS011;6943;52.368;9.966;2022-07-23T11:31:52;2.05;;;1.70;;
13743;SDS011;6943;52.368;9.966;2022-07-23T11:37:07;3.50;;;1.85;;
13743;SDS011;6943;52.368;9.966;2022-07-23T11:39:34;1.77;;;1.67;;
13743;SDS011;6943;52.368;9.966;2022-07-23T11:42:01;4.85;;;1.80;;
13743;SDS011;6943;52.368;9.966;2022-07-23T11:44:34;4.15;;;1.98;;
13743;SDS011;6943;52.368;9.966;2022-07-23T11:47:01;4.18;;;2.10;;
13743;SDS011;6943;52.368;9.966;2022-07-23T11:49:31;2.90;;;2.08;;
13743;SDS011;6943;52.368;9.966;2022-07-23T11:52:07;3.95;;;1.88;;
13743;SDS011;6943;52.368;9.966;2022-07-23T11:54:35;2.55;;;1.77;;
13743;SDS011;6943;52.368;9.966;2022-07-23T11:57:02;1.83;;;1.50;;
13743;SDS011;6943;52.368;9.966;2022-07-23T11:59:30;2.47;;;1.77;;
13743;SDS011;6943;52.368;9.966;2022-07-23T12:02:03;4.45;;;1.65;;
13743;SDS011;6943;52.368;9.966;2022-07-23T12:04:40;2.03;;;1.50;;
13743;SDS011;6943;52.368;9.966;2022-07-23T12:12:44;3.25;;;1.67;;
13743;SDS011;6943;52.368;9.966;2022-07-23T12:15:22;1.58;;;1.10;;
13743;SDS011;6943;52.368;9.966;2022-07-23T12:17:56;2.22;;;1.20;;
13743;SDS011;6943;52.368;9.966;2022-07-23T12:20:24;5.70;;;1.50;;
13743;SDS011;6943;52.368;9.966;2022-07-23T12:22:52;3.03;;;1.55;;
13743;SDS011;6943;52.368;9.966;2022-07-23T12:25:22;2.60;;;1.00;;
13743;SDS011;6943;52.368;9.966;2022-07-23T12:28:02;3.53;;;1.20;;
13743;SDS011;6943;52.368;9.966;2022-07-23T12:30:47;2.33;;;1.40;;
13743;SDS011;6943;52.368;9.966;2022-07-23T12:35:51;4.30;;;1.10;;
13743;SDS011;6943;52.368;9.966;2022-07-23T12:38:20;1.55;;;1.13;;
13743;SDS011;6943;52.368;9.966;2022-07-23T12:46:06;2.58;;;1.33;;
13743;SDS011;6943;52.368;9.966;2022-07-23T12:51:29;2.13;;;1.17;;
13743;SDS011;6943;52.368;9.966;2022-07-23T12:54:06;2.85;;;1.20;;
13743;SDS011;6943;52.368;9.966;2022-07-23T12:56:35;3.03;;;1.20;;
13743;SDS011;6943;52.368;9.966;2022-07-23T12:59:06;2.00;;;1.10;;
13743;SDS011;6943;52.368;9.966;2022-07-23T13:01:38;1.20;;;1.10;;
13743;SDS011;6943;52.368;9.966;2022-07-23T13:04:06;3.13;;;1.15;;
13743;SDS011;6943;52.368;9.966;2022-07-23T13:06:33;1.20;;;1.10;;
13743;SDS011;6943;52.368;9.966;2022-07-23T13:09:02;1.40;;;1.10;;
13743;SDS011;6943;52.368;9.966;2022-07-23T13:11:29;1.65;;;1.10;;
13743;SDS011;6943;52.368;9.966;2022-07-23T13:13:55;2.63;;;1.20;;
13743;SDS011;6943;52.368;9.966;2022-07-23T13:16:20;2.47;;;1.10;;
13743;SDS011;6943;52.368;9.966;2022-07-23T13:18:46;3.05;;;1.08;;
13743;SDS011;6943;52.368;9.966;2022-07-23T13:21:11;2.60;;;1.13;;
13743;SDS011;6943;52.368;9.966;2022-07-23T13:23:37;2.63;;;1.17;;
13743;SDS011;6943;52.368;9.966;2022-07-23T13:26:02;2.60;;;0.88;;
13743;SDS011;6943;52.368;9.966;2022-07-23T13:28:28;1.30;;;1.08;;
13743;SDS011;6943;52.368;9.966;2022-07-23T13:30:55;1.83;;;1.02;;
13743;SDS011;6943;52.368;9.966;2022-07-23T13:33:21;3.20;;;1.33;;
13743;SDS011;6943;52.368;9.966;2022-07-23T13:35:48;1.40;;;0.90;;
13743;SDS011;6943;52.368;9.966;2022-07-23T13:38:15;1.40;;;0.90;;
13743;SDS011;6943;52.368;9.966;2022-07-23T13:40:42;1.05;;;0.90;;
13743;SDS011;6943;52.368;9.966;2022-07-23T13:43:10;0.90;;;0.80;;
13743;SDS011;6943;52.368;9.966;2022-07-23T13:45:37;2.50;;;1.05;;
13743;SDS011;6943;52.368;9.966;2022-07-23T13:48:05;1.48;;;0.90;;
13743;SDS011;6943;52.368;9.966;2022-07-23T13:50:31;1.55;;;1.25;;
13743;SDS011;6943;52.368;9.966;2022-07-23T13:52:59;3.55;;;1.05;;
13743;SDS011;6943;52.368;9.966;2022-07-23T13:55:26;1.50;;;1.00;;
13743;SDS011;6943;52.368;9.966;2022-07-23T13:57:51;3.13;;;1.08;;
13743;SDS011;6943;52.368;9.966;2022-07-23T14:00:17;1.90;;;0.82;;
13743;SDS011;6943;52.368;9.966;2022-07-23T14:02:42;1.77;;;0.90;;
13743;SDS011;6943;52.368;9.966;2022-07-23T14:05:08;1.30;;;0.90;;
13743;SDS011;6943;52.368;9.966;2022-07-23T14:07:35;2.00;;;1.00;;
13743;SDS011;6943;52.368;9.966;2022-07-23T14:10:03;1.92;;;0.98;;
13743;SDS011;6943;52.368;9.966;2022-07-23T14:12:30;3.00;;;0.90;;
13743;SDS011;6943;52.368;9.966;2022-07-23T14:14:55;2.00;;;0.90;;
13743;SDS011;6943;52.368;9.966;2022-07-23T14:17:21;2.58;;;0.90;;
13743;SDS011;6943;52.368;9.966;2022-07-23T14:19:47;2.80;;;0.90;;
13743;SDS011;6943;52.368;9.966;2022-07-23T14:22:12;1.88;;;1.00;;
13743;SDS011;6943;52.368;9.966;2022-07-23T14:24:38;2.03;;;0.98;;
13743;SDS011;6943;52.368;9.966;2022-07-23T14:27:04;2.90;;;1.02;;
13743;SDS011;6943;52.368;9.966;2022-07-23T14:29:29;2.08;;;1.00;;
13743;SDS011;6943;52.368;9.966;2022-07-23T14:31:55;1.92;;;1.00;;
13743;SDS011;6943;52.368;9.966;2022-07-23T14:34:22;2.20;;;0.80;;
13743;SDS011;6943;52.368;9.966;2022-07-23T14:36:47;1.58;;;0.90;;
13743;SDS011;6943;52.368;9.966;2022-07-23T14:39:13;3.03;;;1.02;;
13743;SDS011;6943;52.368;9.966;2022-07-23T14:41:38;1.92;;;0.80;;
13743;SDS011;6943;52.368;9.966;2022-07-23T14:44:04;3.10;;;0.90;;
13743;SDS011;6943;52.368;9.966;2022-07-23T14:46:30;2.88;;;1.10;;
13743;SDS011;6943;52.368;9.966;2022-07-23T14:48:56;2.65;;;1.00;;
13743;SDS011;6943;52.368;9.966;2022-07-23T14:51:21;1.20;;;1.00;;
13743;SDS011;6943;52.368;9.966;2022-07-23T14:53:47;1.08;;;0.90;;
13743;SDS011;6943;52.368;9.966;2022-07-23T14:56:13;3.25;;;1.00;;
13743;SDS011;6943;52.368;9.966;2022-07-23T14:58:39;2.85;;;0.90;;
13743;SDS011;6943;52.368;9.966;2022-07-23T15:01:05;1.20;;;0.75;;
13743;SDS011;6943;52.368;9.966;2022-07-23T15:03:31;1.15;;;1.00;;
13743;SDS011;6943;52.368;9.966;2022-07-23T15:05:56;1.30;;;0.95;;
13743;SDS011;6943;52.368;9.966;2022-07-23T15:08:21;2.10;;;1.02;;
13743;SDS011;6943;52.368;9.966;2022-07-23T15:10:47;1.38;;;0.88;;
13743;SDS011;6943;52.368;9.966;2022-07-23T15:13:12;3.40;;;0.85;;
13743;SDS011;6943;52.368;9.966;2022-07-23T15:15:38;0.98;;;0.80;;
13743;SDS011;6943;52.368;9.966;2022-07-23T15:18:04;3.50;;;0.80;;
13743;SDS011;6943;52.368;9.966;2022-07-23T15:20:29;1.88;;;0.90;;
13743;SDS011;6943;52.368;9.966;2022-07-23T15:22:57;3.08;;;0.70;;
13743;SDS011;6943;52.368;9.966;2022-07-23T15:25:22;1.08;;;0.77;;
13743;SDS011;6943;52.368;9.966;2022-07-23T15:27:48;2.05;;;0.80;;
13743;SDS011;6943;52.368;9.966;2022-07-23T15:30:14;1.75;;;0.80;;
13743;SDS011;6943;52.368;9.966;2022-07-23T15:32:40;1.63;;;0.80;;
13743;SDS011;6943;52.368;9.966;2022-07-23T15:35:05;2.08;;;0.93;;
13743;SDS011;6943;52.368;9.966;2022-07-23T15:37:33;3.25;;;0.90;;
13743;SDS011;6943;52.368;9.966;2022-07-23T15:39:59;2.05;;;0.73;;
13743;SDS011;6943;52.368;9.966;2022-07-23T15:42:25;1.10;;;0.80;;
13743;SDS011;6943;52.368;9.966;2022-07-23T15:44:50;3.03;;;0.90;;
13743;SDS011;6943;52.368;9.966;2022-07-23T15:47:17;2.17;;;0.80;;
13743;SDS011;6943;52.368;9.966;2022-07-23T15:49:43;2.20;;;0.80;;
13743;SDS011;6943;52.368;9.966;2022-07-23T15:52:09;3.75;;;0.98;;
13743;SDS011;6943;52.368;9.966;2022-07-23T15:54:36;2.88;;;0.80;;